createdAt,value
2019-03-09T00:02:26.777Z,11.00
2019-03-09T00:05:02.533Z,11.00
2019-03-09T00:07:32.430Z,19.00
2019-03-09T00:10:00.959Z,14.60
2019-03-09T00:12:29.493Z,11.33
2019-03-09T00:15:00.795Z,10.97
2019-03-09T00:17:29.347Z,14.80
2019-03-09T00:20:02.477Z,11.77
2019-03-09T00:23:02.555Z,14.73
2019-03-09T00:25:35.919Z,13.50
2019-03-09T00:28:22.621Z,10.53
2019-03-09T00:30:56.461Z,13.13
2019-03-09T00:33:24.999Z,13.53
2019-03-09T00:35:53.541Z,11.77
2019-03-09T00:38:23.223Z,20.73
2019-03-09T00:40:51.770Z,12.65
2019-03-09T00:43:20.291Z,11.83
2019-03-09T00:45:53.084Z,10.17
2019-03-09T00:48:21.615Z,11.03
2019-03-09T00:50:50.152Z,12.80
2019-03-09T00:53:22.336Z,8.73
2019-03-09T00:55:50.861Z,14.07
2019-03-09T00:58:22.173Z,13.63
2019-03-09T01:00:50.698Z,12.10
2019-03-09T01:03:19.324Z,12.20
2019-03-09T01:05:51.928Z,13.93
2019-03-09T01:08:20.829Z,14.23
2019-03-09T01:10:49.322Z,13.57
2019-03-09T01:13:20.643Z,9.23
2019-03-09T01:15:50.760Z,9.33
2019-03-09T01:18:19.225Z,13.18
2019-03-09T01:20:52.131Z,12.50
2019-03-09T01:23:20.599Z,12.40
2019-03-09T01:25:49.721Z,14.43
2019-03-09T01:28:21.900Z,12.40
2019-03-09T01:30:50.354Z,16.10
2019-03-09T01:33:18.804Z,12.17
2019-03-09T01:35:50.958Z,12.63
2019-03-09T01:38:19.495Z,15.77
2019-03-09T01:40:48.045Z,8.90
2019-03-09T01:43:18.942Z,11.27
2019-03-09T01:45:50.718Z,14.07
2019-03-09T01:48:19.243Z,13.20
2019-03-09T01:50:52.693Z,11.30
2019-03-09T01:53:21.159Z,12.47
2019-03-09T01:55:52.989Z,12.70
2019-03-09T01:58:23.367Z,11.93
2019-03-09T02:00:51.830Z,15.45
2019-03-09T02:03:21.881Z,11.30
2019-03-09T02:05:50.419Z,11.53
2019-03-09T02:08:21.703Z,14.87
2019-03-09T02:10:50.168Z,18.23
2019-03-09T02:13:21.556Z,11.40
2019-03-09T02:15:51.574Z,10.90
2019-03-09T02:18:20.033Z,17.27
2019-03-09T02:20:52.837Z,12.47
2019-03-09T02:23:21.297Z,13.37
2019-03-09T02:25:53.380Z,13.30
2019-03-09T02:28:24.323Z,13.20
2019-03-09T02:30:52.787Z,11.27
2019-03-09T02:33:22.518Z,12.77
2019-03-09T02:35:50.976Z,12.15
2019-03-09T02:38:24.186Z,14.40
2019-03-09T02:40:55.042Z,11.93
2019-03-09T02:43:23.497Z,12.30
2019-03-09T02:45:51.962Z,12.33
2019-03-09T02:48:25.616Z,13.40
2019-03-09T02:50:57.019Z,11.73
2019-03-09T02:53:26.633Z,9.80
2019-03-09T02:55:57.423Z,14.38
2019-03-09T02:58:25.953Z,10.60
2019-03-09T03:01:15.877Z,10.37
2019-03-09T03:03:44.414Z,11.90
2019-03-09T03:06:12.928Z,9.20
2019-03-09T03:08:44.812Z,11.93
2019-03-09T03:11:13.343Z,12.63
2019-03-09T03:13:46.501Z,11.33
2019-03-09T03:16:15.034Z,9.03
2019-03-09T03:18:43.571Z,10.03
2019-03-09T03:21:15.539Z,12.43
2019-03-09T03:23:44.061Z,8.80
2019-03-09T03:26:16.601Z,9.17
2019-03-09T03:28:51.020Z,9.43
2019-03-09T03:31:19.544Z,10.07
2019-03-09T03:33:50.338Z,10.03
2019-03-09T03:36:18.788Z,10.50
2019-03-09T03:38:47.251Z,9.23
2019-03-09T03:41:16.812Z,9.67
2019-03-09T03:43:45.422Z,11.22
2019-03-09T03:46:13.892Z,12.17
2019-03-09T03:48:46.868Z,12.43
2019-03-09T03:51:15.329Z,13.70
2019-03-09T03:53:46.722Z,8.23
2019-03-09T03:56:18.686Z,11.27
2019-03-09T03:58:48.817Z,10.57
2019-03-09T04:01:17.358Z,12.45
2019-03-09T04:03:47.309Z,13.00
2019-03-09T04:06:17.648Z,11.25
2019-03-09T04:08:46.278Z,11.80
2019-03-09T04:11:15.251Z,9.40
2019-03-09T04:13:45.342Z,11.47
2019-03-09T04:16:16.718Z,11.95
2019-03-09T04:18:45.245Z,13.73
2019-03-09T04:21:15.720Z,11.97
2019-03-09T04:26:13.515Z,13.10
2019-03-09T04:28:43.614Z,12.18
2019-03-09T04:31:14.250Z,14.13
2019-03-09T04:33:42.845Z,8.40
2019-03-09T04:36:16.042Z,12.40
2019-03-09T04:38:44.567Z,11.47
2019-03-09T04:41:13.031Z,11.47
2019-03-09T04:43:44.859Z,11.37
2019-03-09T04:46:18.265Z,10.53
2019-03-09T04:48:46.802Z,10.67
2019-03-09T04:51:20.666Z,11.57
2019-03-09T04:53:49.125Z,10.30
2019-03-09T04:56:18.249Z,7.80
2019-03-09T04:58:49.389Z,8.85
2019-03-09T05:01:17.849Z,14.50
2019-03-09T05:03:54.543Z,10.80
2019-03-09T05:06:22.996Z,13.28
2019-03-09T05:09:00.302Z,12.53
2019-03-09T05:11:28.766Z,12.00
2019-03-09T05:14:02.816Z,10.88
2019-03-09T05:16:32.224Z,12.13
2019-03-09T05:19:00.681Z,10.60
2019-03-09T05:21:33.287Z,10.63
2019-03-09T05:24:01.749Z,17.77
2019-03-09T05:26:31.167Z,16.37
2019-03-09T05:29:02.414Z,10.20
2019-03-09T05:31:33.563Z,8.95
2019-03-09T05:34:02.012Z,8.93
2019-03-09T05:36:30.467Z,13.63
2019-03-09T05:39:01.400Z,12.73
2019-03-09T05:41:29.936Z,11.60
2019-03-09T05:43:58.383Z,13.23
2019-03-09T05:46:29.387Z,9.20
2019-03-09T05:49:01.054Z,11.90
2019-03-09T05:51:33.745Z,16.50
2019-03-09T05:54:02.270Z,15.07
2019-03-09T05:56:33.709Z,11.20
2019-03-09T05:59:02.165Z,9.67
2019-03-09T06:01:30.630Z,9.30
2019-03-09T06:04:01.577Z,9.40
2019-03-09T06:06:30.045Z,12.90
2019-03-09T06:08:58.576Z,10.77
2019-03-09T06:11:33.249Z,9.87
2019-03-09T06:14:05.671Z,13.57
2019-03-09T06:16:37.633Z,11.30
2019-03-09T06:19:06.084Z,10.73
2019-03-09T06:21:35.088Z,11.73
2019-03-09T06:24:06.153Z,12.60
2019-03-09T06:26:34.685Z,14.83
2019-03-09T06:29:04.554Z,15.70
2019-03-09T06:31:35.091Z,12.23
2019-03-09T06:36:45.565Z,11.97
2019-03-09T06:39:14.025Z,12.10
2019-03-09T06:41:49.901Z,13.07
2019-03-09T06:44:18.361Z,9.13
2019-03-09T06:46:46.812Z,10.73
2019-03-09T06:49:17.513Z,12.57
2019-03-09T06:51:46.053Z,10.33
2019-03-09T06:54:14.583Z,12.53
2019-03-09T06:56:44.713Z,10.17
2019-03-09T06:59:15.246Z,10.03
2019-03-09T07:01:46.891Z,11.97
2019-03-09T07:04:15.417Z,9.40
2019-03-09T07:06:43.872Z,10.03
2019-03-09T07:09:14.205Z,14.87
2019-03-09T07:14:48.206Z,13.20
2019-03-09T07:17:20.161Z,10.83
2019-03-09T07:19:56.025Z,8.93
2019-03-09T07:22:29.113Z,8.47
2019-03-09T07:24:57.571Z,7.87
2019-03-09T07:27:27.203Z,10.03
2019-03-09T07:29:55.697Z,11.65
2019-03-09T07:32:24.237Z,9.77
2019-03-09T07:34:54.917Z,13.17
2019-03-09T07:37:25.856Z,5.87
2019-03-09T07:39:54.328Z,9.10
2019-03-09T07:42:22.784Z,11.60
2019-03-09T07:44:51.637Z,10.30
2019-03-09T07:47:20.181Z,13.43
2019-03-09T07:49:48.725Z,11.13
2019-03-09T07:52:38.342Z,4.97
2019-03-09T07:55:15.925Z,9.60
2019-03-09T07:57:47.406Z,6.93
2019-03-09T08:00:18.280Z,8.47
2019-03-09T08:02:48.781Z,10.23
2019-03-09T08:07:45.227Z,7.10
2019-03-09T08:10:21.940Z,8.57
2019-03-09T08:12:50.507Z,6.13
2019-03-09T08:15:22.999Z,7.40
2019-03-09T08:17:57.791Z,8.07
2019-03-09T08:20:26.257Z,4.97
2019-03-09T08:22:58.156Z,5.37
2019-03-09T08:25:26.613Z,7.87
2019-03-09T08:27:55.064Z,9.50
2019-03-09T08:30:31.683Z,6.10
2019-03-09T08:33:00.160Z,5.60
2019-03-09T08:35:31.140Z,7.07
2019-03-09T08:38:00.832Z,6.23
2019-03-09T08:40:29.383Z,5.65
2019-03-09T08:43:00.659Z,6.23
2019-03-09T08:45:29.134Z,4.23
2019-03-09T08:47:57.656Z,6.63
2019-03-09T08:50:28.785Z,3.75
2019-03-09T08:52:57.323Z,5.47
2019-03-09T08:55:29.357Z,4.80
2019-03-09T08:57:57.867Z,6.58
2019-03-09T09:00:31.691Z,7.55
2019-03-09T09:03:02.768Z,4.33
2019-03-09T09:05:31.467Z,4.33
2019-03-09T09:08:00.057Z,6.20
2019-03-09T09:10:30.983Z,6.37
2019-03-09T09:12:59.527Z,4.97
2019-03-09T09:15:31.545Z,5.05
2019-03-09T09:18:02.895Z,4.10
2019-03-09T09:20:31.430Z,5.13
2019-03-09T09:23:00.995Z,4.67
2019-03-09T09:25:29.439Z,4.50
2019-03-09T09:27:57.901Z,5.27
2019-03-09T09:30:30.279Z,5.20
2019-03-09T09:33:01.092Z,6.58
2019-03-09T09:35:29.684Z,4.30
2019-03-09T09:37:58.149Z,4.10
2019-03-09T09:40:28.697Z,5.45
2019-03-09T09:45:25.194Z,8.60
2019-03-09T09:47:55.472Z,6.08
2019-03-09T09:50:24.062Z,11.10
2019-03-09T09:52:52.600Z,5.78
2019-03-09T09:55:22.039Z,5.70
2019-03-09T09:57:54.527Z,5.83
2019-03-09T10:00:25.974Z,4.37
2019-03-09T10:02:56.815Z,8.00
2019-03-09T10:05:25.874Z,6.55
2019-03-09T10:07:54.340Z,6.35
2019-03-09T10:10:26.983Z,13.93
2019-03-09T10:12:56.092Z,6.17
2019-03-09T10:15:27.173Z,7.35
2019-03-09T10:17:56.003Z,7.58
2019-03-09T10:20:30.016Z,8.95
2019-03-09T10:23:04.670Z,5.85
2019-03-09T10:25:31.770Z,9.05
2019-03-09T10:28:02.550Z,6.25
2019-03-09T10:30:31.113Z,7.83
2019-03-09T10:33:02.591Z,6.83
2019-03-09T10:35:34.045Z,6.53
2019-03-09T10:38:02.577Z,4.92
2019-03-09T10:40:32.394Z,6.92
2019-03-09T10:43:32.734Z,8.78
2019-03-09T10:45:40.980Z,8.05
2019-03-09T10:48:09.517Z,5.40
2019-03-09T10:50:39.998Z,6.28
2019-03-09T10:55:36.233Z,6.45
2019-03-09T10:58:07.285Z,6.28
2019-03-09T11:00:40.687Z,5.67
2019-03-09T11:03:12.755Z,6.25
2019-03-09T11:05:41.293Z,6.42
2019-03-09T11:08:09.889Z,8.20
2019-03-09T11:10:40.061Z,10.30
2019-03-09T11:13:09.975Z,7.65
2019-03-09T11:15:38.429Z,5.40
2019-03-09T11:18:08.474Z,7.58
2019-03-09T11:20:40.543Z,3.55
2019-03-09T11:23:08.996Z,8.78
2019-03-09T11:25:39.357Z,12.60
2019-03-09T11:28:09.664Z,6.87
2019-03-09T11:36:05.726Z,12.23
2019-03-09T11:38:34.194Z,5.45
2019-03-09T11:41:02.655Z,14.43
2019-03-09T11:43:32.625Z,12.13
2019-03-09T11:46:01.079Z,8.63
2019-03-09T11:48:29.545Z,4.62
2019-03-09T11:51:00.939Z,11.20
2019-03-09T11:53:29.394Z,6.08
2019-03-09T11:56:01.073Z,6.05
2019-03-09T11:58:29.528Z,7.55
2019-03-09T12:00:57.995Z,6.17
2019-03-09T12:03:27.987Z,5.92
2019-03-09T12:05:56.446Z,7.92
2019-03-09T12:08:24.911Z,7.85
2019-03-09T12:10:57.216Z,4.60
2019-03-09T12:13:30.288Z,6.75
2019-03-09T12:15:59.372Z,6.87
2019-03-09T12:18:32.705Z,8.50
2019-03-09T12:21:01.173Z,5.72
2019-03-09T12:23:31.369Z,7.33
2019-03-09T12:25:59.845Z,7.72
2019-03-09T12:28:33.401Z,4.45
2019-03-09T12:31:01.932Z,6.40
2019-03-09T12:33:30.392Z,9.55
2019-03-09T12:36:01.325Z,11.55
2019-03-09T12:38:29.883Z,10.35
2019-03-09T12:40:58.404Z,8.23
2019-03-09T12:43:28.816Z,8.10
2019-03-09T12:48:26.992Z,6.62
2019-03-09T12:50:57.843Z,5.42
2019-03-09T12:53:26.306Z,6.62
2019-03-09T12:55:59.319Z,6.40
2019-03-09T12:58:27.783Z,6.85
2019-03-09T13:00:58.354Z,12.82
2019-03-09T13:03:27.865Z,11.08
2019-03-09T13:05:56.412Z,5.83
2019-03-09T13:08:28.405Z,7.83
2019-03-09T13:10:56.914Z,13.28
2019-03-09T13:13:25.457Z,11.78
2019-03-09T13:15:58.644Z,9.48
2019-03-09T13:18:28.683Z,8.60
2019-03-09T13:20:57.139Z,7.35
2019-03-09T13:23:27.923Z,8.08
2019-03-09T13:25:56.466Z,10.38
2019-03-09T13:28:24.991Z,11.33
2019-03-09T13:30:56.136Z,8.00
2019-03-09T13:33:24.609Z,11.70
2019-03-09T13:35:56.560Z,15.65
2019-03-09T13:38:27.319Z,13.35
2019-03-09T13:41:00.302Z,10.70
2019-03-09T13:43:28.837Z,8.90
2019-03-09T13:46:01.782Z,8.23
2019-03-09T13:48:30.250Z,8.33
2019-03-09T13:50:58.776Z,9.45
2019-03-09T13:53:30.722Z,11.68
2019-03-09T13:55:59.194Z,10.15
2019-03-09T13:58:27.719Z,9.88
2019-03-09T14:00:56.963Z,10.45
2019-03-09T14:03:25.503Z,10.40
2019-03-09T14:05:54.027Z,8.30
2019-03-09T14:08:23.876Z,7.87
2019-03-09T14:10:55.124Z,14.60
2019-03-09T14:13:23.627Z,8.28
2019-03-09T14:15:54.057Z,8.83
2019-03-09T14:20:50.236Z,7.62
2019-03-09T14:23:18.773Z,11.55
2019-03-09T14:25:50.749Z,20.85
2019-03-09T14:28:19.280Z,9.53
2019-03-09T14:30:47.735Z,10.75
2019-03-09T14:33:21.223Z,12.37
2019-03-09T14:35:50.871Z,7.10
2019-03-09T14:38:21.873Z,8.23
2019-03-09T14:40:53.731Z,10.05
2019-03-09T14:43:22.883Z,12.40
2019-03-09T14:45:53.680Z,11.60
2019-03-09T14:48:22.234Z,8.55
2019-03-09T14:50:50.759Z,9.95
2019-03-09T14:53:22.401Z,9.03
2019-03-09T14:55:50.865Z,9.98
2019-03-09T14:58:19.336Z,14.38
2019-03-09T15:00:51.140Z,10.28
2019-03-09T15:03:19.605Z,8.00
2019-03-09T15:05:50.248Z,9.83
2019-03-09T15:08:22.327Z,11.33
2019-03-09T15:10:50.860Z,7.03
2019-03-09T15:13:23.185Z,10.63
2019-03-09T15:15:56.883Z,11.88
2019-03-09T15:18:25.349Z,10.65
2019-03-09T15:20:57.436Z,10.32
2019-03-09T15:23:25.905Z,13.80
2019-03-09T15:25:56.454Z,12.63
2019-03-09T15:28:24.979Z,11.10
2019-03-09T15:30:54.861Z,13.95
2019-03-09T15:33:23.316Z,6.50
2019-03-09T15:35:54.389Z,4.08
2019-03-09T15:38:26.961Z,7.62
2019-03-09T15:40:59.646Z,4.90
2019-03-09T15:43:28.182Z,7.70
2019-03-09T15:45:56.703Z,5.08
2019-03-09T15:48:28.987Z,5.12
2019-03-09T15:50:57.522Z,6.17
2019-03-09T15:53:26.055Z,5.78
2019-03-09T15:55:55.250Z,8.65
2019-03-09T15:58:23.721Z,12.78
2019-03-09T16:00:52.264Z,11.05
2019-03-09T16:03:22.759Z,6.90
2019-03-09T16:08:22.304Z,8.88
2019-03-09T16:10:54.260Z,14.47
2019-03-09T16:13:27.340Z,9.88
2019-03-09T16:15:56.771Z,7.37
2019-03-09T16:18:27.926Z,7.50
2019-03-09T16:20:56.439Z,9.08
2019-03-09T16:23:24.893Z,8.88
2019-03-09T16:25:59.708Z,4.67
2019-03-09T16:28:28.230Z,6.03
2019-03-09T16:30:56.690Z,4.72
2019-03-09T16:33:26.596Z,4.78
2019-03-09T16:35:55.043Z,5.65
2019-03-09T16:38:27.148Z,5.12
2019-03-09T16:41:01.156Z,6.65
2019-03-09T16:43:29.694Z,4.30
2019-03-09T16:45:58.227Z,3.50
2019-03-09T16:48:28.045Z,3.75
2019-03-09T16:50:56.507Z,3.30
2019-03-09T16:53:24.961Z,3.42
2019-03-09T16:55:55.546Z,5.05
2019-03-09T16:58:24.081Z,3.95
2019-03-09T17:00:52.933Z,4.65
2019-03-09T17:03:23.982Z,2.15
2019-03-09T17:05:52.503Z,3.20
2019-03-09T17:08:20.955Z,3.65
2019-03-09T17:10:53.616Z,3.50
2019-03-09T17:13:22.081Z,5.15
2019-03-09T17:15:56.217Z,5.85
2019-03-09T17:18:24.669Z,2.30
2019-03-09T17:20:53.195Z,3.45
2019-03-09T17:23:24.436Z,2.70
2019-03-09T17:25:52.968Z,3.33
2019-03-09T17:28:21.417Z,5.37
2019-03-09T17:30:51.715Z,3.58
2019-03-09T17:33:20.170Z,4.58
2019-03-09T17:35:48.683Z,3.05
2019-03-09T17:38:17.158Z,3.20
2019-03-09T17:40:46.716Z,4.80
2019-03-09T17:43:18.680Z,4.00
2019-03-09T17:45:47.217Z,3.50
2019-03-09T17:48:15.668Z,4.60
2019-03-09T17:50:48.106Z,3.20
2019-03-09T17:53:16.565Z,2.75
2019-03-09T17:55:45.083Z,6.60
2019-03-09T17:58:14.498Z,2.45
2019-03-09T18:00:46.991Z,5.40
2019-03-09T18:03:16.258Z,3.33
2019-03-09T18:05:44.727Z,4.97
2019-03-09T18:08:13.243Z,5.97
2019-03-09T18:10:57.175Z,7.20
2019-03-09T18:13:25.716Z,6.70
2019-03-09T18:15:58.960Z,8.93
2019-03-09T18:18:27.418Z,27.37
2019-03-09T18:20:55.956Z,38.73
2019-03-09T18:23:25.020Z,17.67
2019-03-09T18:25:53.480Z,8.63
2019-03-09T18:28:24.143Z,6.33
2019-03-09T18:30:56.614Z,3.93
2019-03-09T18:33:25.063Z,4.93
2019-03-09T18:35:55.653Z,7.57
2019-03-09T18:38:24.114Z,5.27
2019-03-09T18:40:55.463Z,5.97
2019-03-09T18:43:28.588Z,6.80
2019-03-09T18:46:00.745Z,6.60
2019-03-09T18:48:29.268Z,6.43
2019-03-09T18:51:01.690Z,9.50
2019-03-09T18:53:30.148Z,8.83
2019-03-09T18:55:59.567Z,9.30
2019-03-09T18:58:32.783Z,8.03
2019-03-09T19:01:01.242Z,10.57
2019-03-09T19:03:29.781Z,6.43
2019-03-09T19:06:00.801Z,5.63
2019-03-09T19:08:29.262Z,7.10
2019-03-09T19:11:00.110Z,6.63
2019-03-09T19:13:30.054Z,6.93
2019-03-09T19:16:00.667Z,12.03
2019-03-09T19:18:35.287Z,7.00
2019-03-09T19:21:03.735Z,7.63
2019-03-09T19:23:32.189Z,7.07
2019-03-09T19:26:03.830Z,8.30
2019-03-09T19:28:33.119Z,6.43
2019-03-09T19:31:01.581Z,9.00
2019-03-09T19:33:31.444Z,6.63
2019-03-09T19:35:59.973Z,7.40
2019-03-09T19:38:28.425Z,9.57
2019-03-09T19:40:57.501Z,6.37
2019-03-09T19:43:25.962Z,6.93
2019-03-09T19:45:56.221Z,8.20
2019-03-09T19:48:24.748Z,9.63
2019-03-09T19:50:53.268Z,9.40
2019-03-09T19:53:22.326Z,8.23
2019-03-09T19:55:53.964Z,6.93
2019-03-09T19:58:22.468Z,8.63
2019-03-09T20:00:50.929Z,8.30
2019-03-09T20:03:21.943Z,8.40
2019-03-09T20:05:50.572Z,11.30
2019-03-09T20:08:19.090Z,10.20
2019-03-09T20:10:49.965Z,7.50
2019-03-09T20:13:18.420Z,10.37
2019-03-09T20:15:52.243Z,13.33
2019-03-09T20:18:20.752Z,11.13
2019-03-09T20:20:49.198Z,9.50
2019-03-09T20:23:19.045Z,10.03
2019-03-09T20:25:47.508Z,11.12
2019-03-09T20:28:18.556Z,9.67
2019-03-09T20:30:50.445Z,10.63
2019-03-09T20:33:18.981Z,8.90
2019-03-09T20:35:47.441Z,12.40
2019-03-09T20:38:18.766Z,13.93
2019-03-09T20:40:51.111Z,8.93
2019-03-09T20:43:26.166Z,11.13
2019-03-09T20:45:54.620Z,11.40
2019-03-09T20:48:24.568Z,7.40
2019-03-09T20:50:55.091Z,6.28
2019-03-09T20:53:23.555Z,7.40
2019-03-09T20:55:55.551Z,11.13
2019-03-09T20:58:24.080Z,12.20
2019-03-09T21:00:55.076Z,4.47
2019-03-09T21:03:23.616Z,3.50
2019-03-09T21:05:55.528Z,4.30
2019-03-09T21:08:28.531Z,5.77
2019-03-09T21:11:03.874Z,3.90
2019-03-09T21:13:29.779Z,2.20
2019-03-09T21:16:01.035Z,3.67
2019-03-09T21:18:29.570Z,5.33
2019-03-09T21:20:59.030Z,7.63
2019-03-09T21:23:27.560Z,4.63
2019-03-09T21:25:58.157Z,5.27
2019-03-09T21:28:29.093Z,5.33
2019-03-09T21:30:57.539Z,8.67
2019-03-09T21:33:28.396Z,6.03
2019-03-09T21:35:56.904Z,9.53
2019-03-09T21:38:25.429Z,9.63
2019-03-09T21:40:56.013Z,15.13
2019-03-09T21:43:26.960Z,9.50
2019-03-09T21:46:02.097Z,9.87
2019-03-09T21:48:30.551Z,15.13
2019-03-09T21:50:59.014Z,7.20
2019-03-09T21:53:31.623Z,14.20
2019-03-09T21:56:03.725Z,10.90
2019-03-09T21:58:32.252Z,10.60
2019-03-09T22:01:03.245Z,15.23
2019-03-09T22:03:31.691Z,9.67
2019-03-09T22:06:05.953Z,13.07
2019-03-09T22:08:34.019Z,10.18
2019-03-09T22:11:02.467Z,9.13
2019-03-09T22:13:33.753Z,7.67
2019-03-09T22:16:07.357Z,11.70
2019-03-09T22:18:36.562Z,12.27
2019-03-09T22:21:05.174Z,10.90
2019-03-09T22:23:43.502Z,8.30
2019-03-09T22:26:06.322Z,8.80
2019-03-09T22:28:34.840Z,8.10
2019-03-09T22:31:03.299Z,11.07
2019-03-09T22:33:35.149Z,14.67
2019-03-09T22:36:03.603Z,9.90
2019-03-09T22:39:14.390Z,11.33
2019-03-09T22:41:42.924Z,13.90
2019-03-09T22:44:12.986Z,13.70
2019-03-09T22:46:45.673Z,10.08
2019-03-09T22:49:14.133Z,8.47
2019-03-09T22:51:42.655Z,14.37
2019-03-09T22:54:13.580Z,11.23
2019-03-09T22:56:42.045Z,7.70
2019-03-09T22:59:13.314Z,10.73
2019-03-09T23:01:43.641Z,9.77
2019-03-09T23:04:12.101Z,6.72
2019-03-09T23:06:42.754Z,10.83
2019-03-09T23:09:13.917Z,9.80
2019-03-09T23:11:42.452Z,6.67
2019-03-09T23:14:13.230Z,10.00
2019-03-09T23:16:49.791Z,6.07
2019-03-09T23:19:21.465Z,9.37
2019-03-09T23:21:50.001Z,8.00
2019-03-09T23:24:18.458Z,6.90
2019-03-09T23:26:50.709Z,9.50
2019-03-09T23:29:19.246Z,7.70
2019-03-09T23:31:47.781Z,5.90
2019-03-09T23:34:18.521Z,11.87
2019-03-09T23:36:47.053Z,8.73
2019-03-09T23:39:19.985Z,7.57
2019-03-09T23:41:48.494Z,11.20
2019-03-09T23:44:18.778Z,13.63
2019-03-09T23:46:49.010Z,9.90
2019-03-09T23:49:17.460Z,6.90
2019-03-09T23:51:45.922Z,5.03
2019-03-09T23:54:18.374Z,11.00
2019-03-09T23:56:47.073Z,9.17
2019-03-09T23:59:15.516Z,8.80
